Terminal Aerodrome Forecast
Issued by NWS

Home | Current Version | Previous Version | Text Only | Print | Product List | Glossary On
Versions: 1 2 3 4 5 6 7 8 9 10 11 12 13 14 15 16 17 18 19
000
FTUS46 KPDT 251140
TAFYKM
TAF
KYKM 251140Z 2512/2612 33012KT P6SM SCT060 BKN200
     FM251900 14005KT P6SM SCT070 SCT250
     FM260300 32010KT P6SM SCT080
     FM260700 33006KT P6SM BKN090 BKN150=

USA.gov is the U.S. government's official web portal to all federal, state and local government web resources and services.